OIFK  Kashan Airport

Add Bookmark

Iran

Status
Operational
Latitude Longitude
33° 53' 43" N 51° 34' 37" E
33.895302 51.577000
Local (DST + 5) UTC (GMT + 4)
Aug 23, 2014 12:08 Aug 22, 2014 19:38
Sunrise-Sunset Local UTC
Begin Civil Twilight 06:04 01:34
Sunrise 06:29 01:59
Sunset 07:42 15:12
End Civil Twilight 08:08 15:38

Current Weather

METAR Observed VFR
OIFK 221900Z 14006KT CAVOK 32/11 Q1014 Fri, Aug 22, 2014 @ 19:00 UTC
(38 Minutes ago)
Visual Flight Rules
Wind Visibility Clouds Conditions
140° at 6 knots (11 kph) 10 km or more
  • Clear skies
  • No significant weather
Temperatures Readings Precipitation
Current Temp 32°C (90°F)
Dewpoint 11°C (52°F)
Humidity 27%
Altimeter 29.94"Hg
Sea Level Pressure 1014mb
Field Elevation 3221.78'
None Recorded

Additional weather within a 185.2km radius of OIFK

Map ICAO Location
OIFM 129.8km S (168°)
OIIE 173.3km N (347°)

24 Hour Weather History

Loading
-

24 Hour Weather Graphs

Loading
-

CheckWX.com is intended as a tool to help pilots better visualize weather data. It is not intended as a substitute for an official weather briefing obtained from a Flight Service Station. CheckWX.com does not meet the FAA requirements for an official pre-flight weather briefing. Therefore, it's important that pilots still call and obtain an official FSS pre-flight weather briefing.